createdAt,value
2022-09-14T00:01:32.464Z,69.20
2022-09-14T00:04:06.841Z,69.00
2022-09-14T00:06:35.824Z,68.90
2022-09-14T00:09:06.708Z,68.20
2022-09-14T00:11:36.022Z,69.00
2022-09-14T00:14:04.459Z,69.00
2022-09-14T00:16:37.781Z,69.80
2022-09-14T00:19:26.197Z,68.20
2022-09-14T00:21:56.276Z,68.70
2022-09-14T00:24:26.154Z,68.60
2022-09-14T00:26:53.774Z,69.10
2022-09-14T00:29:20.966Z,69.30
2022-09-14T00:31:48.216Z,69.50
2022-09-14T00:34:16.735Z,70.30
2022-09-14T00:36:47.269Z,69.10
2022-09-14T00:39:16.049Z,69.20
2022-09-14T00:41:46.170Z,69.00
2022-09-14T00:44:13.277Z,68.60
2022-09-14T00:46:48.632Z,68.50
2022-09-14T00:49:29.838Z,67.60
2022-09-14T00:52:01.022Z,68.40
2022-09-14T00:54:28.153Z,68.40
2022-09-14T00:56:59.005Z,68.20
2022-09-14T00:59:29.275Z,67.10
2022-09-14T01:01:56.763Z,67.90
2022-09-14T01:04:24.152Z,68.10
2022-09-14T01:06:54.230Z,68.00
2022-09-14T01:09:46.233Z,68.00
2022-09-14T01:12:35.012Z,67.90
2022-09-14T01:15:36.144Z,67.70
2022-09-14T01:18:12.682Z,66.70
2022-09-14T01:21:09.390Z,67.60
2022-09-14T01:24:12.005Z,67.80
2022-09-14T01:26:46.982Z,67.60
2022-09-14T01:29:40.294Z,67.10
2022-09-14T01:32:18.386Z,68.30
2022-09-14T01:35:05.488Z,68.50
2022-09-14T01:37:42.167Z,68.60
2022-09-14T01:40:29.506Z,68.60
2022-09-14T01:43:25.172Z,68.50
2022-09-14T01:45:57.490Z,68.40
2022-09-14T01:48:31.598Z,68.40
2022-09-14T01:51:01.186Z,68.20
2022-09-14T01:53:34.597Z,68.30
2022-09-14T01:56:15.868Z,68.30
2022-09-14T01:58:50.154Z,68.00
2022-09-14T02:01:34.067Z,67.80
2022-09-14T02:04:06.273Z,67.60
2022-09-14T02:06:38.918Z,67.50
2022-09-14T02:09:09.047Z,67.30
2022-09-14T02:11:36.800Z,67.10
2022-09-14T02:14:05.015Z,67.10
2022-09-14T02:16:32.662Z,67.70
2022-09-14T02:19:01.584Z,67.70
2022-09-14T02:21:33.423Z,67.80
2022-09-14T02:24:01.464Z,67.80
2022-09-14T02:26:29.431Z,68.20
2022-09-14T02:28:57.507Z,68.30
2022-09-14T02:32:01.413Z,68.40
2022-09-14T02:34:29.082Z,68.40
2022-09-14T02:37:18.648Z,68.80
2022-09-14T02:39:54.414Z,68.90
2022-09-14T02:42:39.863Z,68.90
2022-09-14T02:45:28.943Z,69.10
2022-09-14T02:48:12.965Z,69.10
2022-09-14T02:50:50.940Z,69.20
2022-09-14T02:53:30.517Z,69.80
2022-09-14T02:56:01.294Z,69.90
2022-09-14T02:58:42.970Z,69.80
2022-09-14T03:01:20.043Z,69.90
2022-09-14T03:03:47.223Z,69.80
2022-09-14T03:06:15.014Z,69.60
2022-09-14T03:08:43.584Z,69.60
2022-09-14T03:11:11.452Z,69.70
2022-09-14T03:13:38.881Z,69.70
2022-09-14T03:16:12.274Z,69.80
2022-09-14T03:18:40.382Z,70.10
2022-09-14T03:21:12.529Z,70.10
2022-09-14T03:23:41.885Z,70.20
2022-09-14T03:26:20.662Z,70.30
2022-09-14T03:28:51.892Z,70.50
2022-09-14T03:31:19.512Z,70.40
2022-09-14T03:33:47.230Z,70.40
2022-09-14T03:36:19.035Z,70.50
2022-09-14T03:38:48.828Z,69.70
2022-09-14T03:41:16.484Z,69.10
2022-09-14T03:43:44.233Z,68.00
2022-09-14T03:46:17.546Z,68.00
2022-09-14T03:48:44.766Z,68.30
2022-09-14T03:51:13.286Z,69.30
2022-09-14T03:53:41.574Z,69.80
2022-09-14T03:56:20.054Z,70.10
2022-09-14T03:58:48.374Z,70.30
2022-09-14T04:01:18.145Z,70.50
2022-09-14T04:03:46.137Z,70.30
2022-09-14T04:06:14.664Z,70.10
2022-09-14T04:08:42.971Z,69.10
2022-09-14T04:11:21.639Z,69.90
2022-09-14T04:13:49.806Z,70.00
2022-09-14T04:16:18.716Z,69.60
2022-09-14T04:18:46.390Z,69.70
2022-09-14T04:21:16.543Z,69.40
2022-09-14T04:24:12.707Z,69.60
2022-09-14T04:26:32.506Z,69.60
2022-09-14T04:29:00.180Z,69.50
2022-09-14T04:31:27.495Z,69.80
2022-09-14T04:33:56.899Z,69.80
2022-09-14T04:36:29.236Z,69.70
2022-09-14T04:38:58.760Z,69.10
2022-09-14T04:41:26.639Z,70.00
2022-09-14T04:43:55.693Z,71.60
2022-09-14T04:46:25.495Z,70.50
2022-09-14T04:48:52.832Z,70.70
2022-09-14T04:51:25.843Z,70.90
2022-09-14T04:53:56.187Z,70.60
2022-09-14T04:56:24.552Z,70.50
2022-09-14T04:58:54.594Z,70.70
2022-09-14T05:01:30.053Z,70.40
2022-09-14T05:03:58.623Z,70.10
2022-09-14T05:06:34.170Z,70.30
2022-09-14T05:09:04.234Z,70.20
2022-09-14T05:11:33.719Z,70.50
2022-09-14T05:14:02.253Z,70.60
2022-09-14T05:16:30.822Z,70.80
2022-09-14T05:19:02.004Z,70.70
2022-09-14T05:21:30.966Z,70.90
2022-09-14T05:24:00.424Z,70.70
2022-09-14T05:26:29.506Z,70.60
2022-09-14T05:28:58.524Z,70.30
2022-09-14T05:31:27.614Z,70.10
2022-09-14T05:33:55.033Z,70.20
2022-09-14T05:36:22.503Z,70.10
2022-09-14T05:38:50.098Z,69.60
2022-09-14T05:41:17.572Z,69.40
2022-09-14T05:43:45.538Z,69.40
2022-09-14T05:46:15.138Z,69.20
2022-09-14T05:48:43.107Z,68.10
2022-09-14T05:51:18.797Z,68.70
2022-09-14T05:53:54.153Z,68.70
2022-09-14T05:56:22.706Z,68.60
2022-09-14T05:58:50.692Z,68.60
2022-09-14T06:01:20.716Z,68.20
2022-09-14T06:03:48.948Z,69.00
2022-09-14T06:06:18.301Z,67.80
2022-09-14T06:08:46.687Z,67.70
2022-09-14T06:11:15.970Z,67.80
2022-09-14T06:13:44.180Z,68.90
2022-09-14T06:16:13.712Z,69.20
2022-09-14T06:18:42.309Z,69.20
2022-09-14T06:21:11.473Z,69.00
2022-09-14T06:23:38.740Z,68.80
2022-09-14T06:26:06.136Z,68.30
2022-09-14T06:28:34.219Z,67.80
2022-09-14T06:31:04.296Z,67.20
2022-09-14T06:33:32.068Z,67.00
2022-09-14T06:36:09.569Z,66.60
2022-09-14T06:38:36.683Z,66.20
2022-09-14T06:41:06.443Z,66.00
2022-09-14T06:43:36.430Z,65.30
2022-09-14T06:46:27.378Z,66.00
2022-09-14T06:48:58.187Z,65.00
2022-09-14T06:51:30.132Z,64.80
2022-09-14T06:54:01.613Z,64.00
2022-09-14T06:56:32.552Z,63.60
2022-09-14T06:59:00.128Z,62.60
2022-09-14T07:01:27.759Z,62.80
2022-09-14T07:03:55.155Z,62.40
2022-09-14T07:06:39.907Z,61.80
2022-09-14T07:09:07.475Z,62.60
2022-09-14T07:11:35.030Z,60.90
2022-09-14T07:14:02.419Z,60.40
2022-09-14T07:16:31.517Z,59.70
2022-09-14T07:19:01.864Z,59.10
2022-09-14T07:21:31.058Z,58.10
2022-09-14T07:23:58.369Z,57.50
2022-09-14T07:26:28.266Z,56.70
2022-09-14T07:28:58.163Z,55.70
2022-09-14T07:31:31.446Z,56.40
2022-09-14T07:34:01.924Z,54.40
2022-09-14T07:36:34.620Z,54.90
2022-09-14T07:39:07.338Z,54.80
2022-09-14T07:41:35.281Z,56.10
2022-09-14T07:44:06.163Z,56.30
2022-09-14T07:46:40.840Z,55.40
2022-09-14T07:49:09.574Z,55.50
2022-09-14T07:51:37.921Z,54.90
2022-09-14T07:54:06.644Z,54.50
2022-09-14T07:56:34.927Z,53.20
2022-09-14T07:59:30.820Z,52.80
2022-09-14T08:01:51.368Z,54.20
2022-09-14T08:04:18.546Z,53.40
2022-09-14T08:06:45.625Z,53.10
2022-09-14T08:09:12.803Z,52.60
2022-09-14T08:11:39.917Z,52.40
2022-09-14T08:14:13.914Z,52.20
2022-09-14T08:16:41.421Z,51.40
2022-09-14T08:19:13.597Z,51.80
2022-09-14T08:21:46.286Z,52.70
2022-09-14T08:24:16.742Z,52.70
2022-09-14T08:26:43.948Z,53.30
2022-09-14T08:29:12.972Z,54.20
2022-09-14T08:31:40.506Z,53.30
2022-09-14T08:34:08.520Z,51.90
2022-09-14T08:36:38.748Z,50.20
2022-09-14T08:39:09.271Z,49.10
2022-09-14T08:41:45.542Z,48.60
2022-09-14T08:44:18.132Z,48.70
2022-09-14T08:46:49.580Z,47.90
2022-09-14T08:49:31.233Z,47.60
2022-09-14T08:51:58.383Z,47.30
2022-09-14T08:54:25.557Z,47.30
2022-09-14T08:57:07.727Z,46.90
2022-09-14T08:59:56.000Z,46.40
2022-09-14T09:03:02.976Z,46.10
2022-09-14T09:05:43.667Z,45.30
2022-09-14T09:08:17.826Z,46.20
2022-09-14T09:10:46.290Z,46.60
2022-09-14T09:13:21.359Z,46.60
2022-09-14T09:15:55.082Z,47.60
2022-09-14T09:18:40.659Z,48.20
2022-09-14T09:21:14.913Z,49.30
2022-09-14T09:23:42.404Z,48.90
2022-09-14T09:26:09.547Z,48.90
2022-09-14T09:28:54.290Z,49.80
2022-09-14T09:31:36.111Z,50.00
2022-09-14T09:34:31.103Z,50.10
2022-09-14T09:37:18.557Z,48.40
2022-09-14T09:39:46.902Z,47.80
2022-09-14T09:42:23.255Z,48.00
2022-09-14T09:45:11.475Z,47.40
2022-09-14T09:47:41.891Z,45.00
2022-09-14T09:50:15.097Z,43.90
2022-09-14T09:52:56.904Z,42.50
2022-09-14T09:55:33.775Z,41.10
2022-09-14T09:58:22.682Z,40.30
2022-09-14T10:01:12.400Z,40.20
2022-09-14T10:03:40.797Z,39.20
2022-09-14T10:06:11.245Z,36.70
2022-09-14T10:08:44.949Z,36.20
2022-09-14T10:11:37.501Z,37.20
2022-09-14T10:14:19.684Z,37.20
2022-09-14T10:16:47.499Z,36.30
2022-09-14T10:19:20.732Z,31.40
2022-09-14T10:22:27.290Z,28.90
2022-09-14T10:25:22.724Z,26.40
2022-09-14T10:27:59.770Z,26.30
2022-09-14T10:30:36.629Z,26.40
2022-09-14T10:33:13.816Z,27.70
2022-09-14T10:35:43.885Z,27.10
2022-09-14T10:38:39.884Z,25.80
2022-09-14T10:41:33.342Z,23.30
2022-09-14T10:44:24.627Z,21.10
2022-09-14T10:47:10.064Z,20.50
2022-09-14T10:49:58.166Z,20.60
2022-09-14T10:52:54.163Z,19.20
2022-09-14T10:55:45.960Z,17.80
2022-09-14T10:58:24.663Z,16.90
2022-09-14T11:01:22.044Z,17.20
2022-09-14T11:03:57.835Z,15.80
2022-09-14T11:06:58.138Z,14.00
2022-09-14T11:09:33.442Z,12.30
2022-09-14T11:12:18.745Z,11.60
2022-09-14T11:15:02.886Z,11.00
2022-09-14T11:17:41.879Z,11.20
2022-09-14T11:20:36.075Z,10.70
2022-09-14T11:23:14.032Z,9.70
2022-09-14T11:25:57.005Z,9.20
2022-09-14T11:28:44.856Z,8.60
2022-09-14T11:32:10.255Z,8.00
2022-09-14T11:34:45.090Z,8.40
2022-09-14T11:37:19.082Z,8.20
2022-09-14T11:39:51.417Z,9.00
2022-09-14T11:42:31.636Z,10.10
2022-09-14T11:45:04.437Z,9.20
2022-09-14T11:47:41.756Z,10.00
2022-09-14T11:50:27.942Z,10.90
2022-09-14T11:53:11.555Z,11.10
2022-09-14T11:55:44.561Z,10.10
2022-09-14T11:58:26.249Z,9.70
2022-09-14T12:01:05.689Z,10.30
2022-09-14T12:03:54.557Z,10.10
2022-09-14T12:06:30.681Z,9.20
2022-09-14T12:09:30.173Z,8.50
2022-09-14T12:12:03.257Z,7.70
2022-09-14T12:14:36.562Z,7.60
2022-09-14T12:17:38.159Z,6.90
2022-09-14T12:20:29.409Z,7.00
2022-09-14T12:23:20.578Z,6.90
2022-09-14T12:26:05.629Z,6.90
2022-09-14T12:28:38.740Z,6.70
2022-09-14T12:31:05.911Z,6.60
2022-09-14T12:33:33.295Z,6.80
2022-09-14T12:36:01.003Z,7.30
2022-09-14T12:38:31.364Z,7.40
2022-09-14T12:41:08.419Z,7.20
2022-09-14T12:43:35.554Z,8.20
2022-09-14T12:46:03.903Z,8.10
2022-09-14T12:48:55.742Z,7.80
2022-09-14T12:51:32.600Z,8.20
2022-09-14T12:54:16.026Z,8.60
2022-09-14T12:56:52.084Z,9.40
2022-09-14T12:59:28.396Z,9.90
2022-09-14T13:02:05.150Z,10.80
2022-09-14T13:04:35.969Z,11.50
2022-09-14T13:07:13.991Z,12.60
2022-09-14T13:09:51.265Z,12.70
2022-09-14T13:12:31.534Z,12.50
2022-09-14T13:15:05.072Z,14.40
2022-09-14T13:17:32.342Z,14.30
2022-09-14T13:20:03.954Z,14.80
2022-09-14T13:22:32.923Z,14.90
2022-09-14T13:25:03.653Z,16.20
2022-09-14T13:27:35.032Z,16.90
2022-09-14T13:30:20.698Z,16.90
2022-09-14T13:32:52.174Z,16.80
2022-09-14T13:35:28.635Z,16.80
2022-09-14T13:37:58.467Z,16.70
2022-09-14T13:40:29.561Z,16.50
2022-09-14T13:42:57.981Z,16.20
2022-09-14T13:45:26.014Z,16.60
2022-09-14T13:47:54.313Z,16.70
2022-09-14T13:50:25.203Z,16.80
2022-09-14T13:53:08.331Z,17.00
2022-09-14T13:55:35.495Z,16.50
2022-09-14T13:58:22.211Z,16.10
2022-09-14T14:00:54.238Z,15.90
2022-09-14T14:03:39.504Z,15.70
2022-09-14T14:06:28.958Z,16.40
2022-09-14T14:09:05.752Z,17.10
2022-09-14T14:11:41.076Z,17.60
2022-09-14T14:14:16.109Z,17.90
2022-09-14T14:17:21.732Z,18.20
2022-09-14T14:19:54.273Z,19.10
2022-09-14T14:22:39.475Z,20.10
2022-09-14T14:25:19.964Z,20.00
2022-09-14T14:27:48.027Z,20.70
2022-09-14T14:30:18.386Z,20.50
2022-09-14T14:32:52.878Z,19.10
2022-09-14T14:35:23.386Z,17.90
2022-09-14T14:37:51.303Z,18.40
2022-09-14T14:40:19.702Z,19.50
2022-09-14T14:42:47.826Z,20.50
2022-09-14T14:45:18.993Z,21.70
2022-09-14T14:47:47.610Z,22.90
2022-09-14T14:50:16.883Z,24.00
2022-09-14T14:52:44.178Z,25.00
2022-09-14T14:55:13.840Z,25.60
2022-09-14T14:57:41.887Z,26.10
2022-09-14T15:00:18.173Z,26.90
2022-09-14T15:02:45.727Z,27.10
2022-09-14T15:05:13.219Z,28.00
2022-09-14T15:07:42.484Z,29.20
2022-09-14T15:10:15.046Z,29.30
2022-09-14T15:12:42.615Z,29.40
2022-09-14T15:15:21.770Z,29.90
2022-09-14T15:17:48.929Z,30.00
2022-09-14T15:20:17.898Z,30.30
2022-09-14T15:22:45.219Z,30.50
2022-09-14T15:25:14.095Z,29.40
2022-09-14T15:27:41.556Z,28.20
2022-09-14T15:30:09.770Z,27.70
2022-09-14T15:32:36.900Z,27.60
2022-09-14T15:35:06.110Z,28.00
2022-09-14T15:37:33.328Z,28.40
2022-09-14T15:40:00.558Z,29.00
2022-09-14T15:42:27.764Z,29.70
2022-09-14T15:44:54.912Z,30.40
2022-09-14T15:47:22.182Z,30.60
2022-09-14T15:49:52.813Z,30.50
2022-09-14T15:52:20.062Z,30.60
2022-09-14T15:54:48.357Z,30.60
2022-09-14T15:57:15.604Z,31.30
2022-09-14T15:59:42.781Z,31.50
2022-09-14T16:02:12.246Z,31.50
2022-09-14T16:04:39.969Z,30.90
2022-09-14T16:07:11.197Z,31.00
2022-09-14T16:09:39.592Z,30.80
2022-09-14T16:12:07.969Z,32.00
2022-09-14T16:14:35.351Z,32.30
2022-09-14T16:17:03.038Z,32.50
2022-09-14T16:19:30.341Z,32.90
2022-09-14T16:21:57.578Z,32.10
2022-09-14T16:24:25.737Z,32.00
2022-09-14T16:26:53.954Z,32.50
2022-09-14T16:29:24.002Z,32.90
2022-09-14T16:31:52.218Z,33.30
2022-09-14T16:34:28.832Z,33.30
2022-09-14T16:36:58.457Z,33.30
2022-09-14T16:39:29.355Z,32.40
2022-09-14T16:41:57.165Z,33.90
2022-09-14T16:44:26.253Z,33.80
2022-09-14T16:46:55.261Z,33.60
2022-09-14T16:49:27.176Z,33.90
2022-09-14T16:51:55.319Z,34.20
2022-09-14T16:54:24.312Z,35.10
2022-09-14T16:56:51.500Z,35.60
2022-09-14T16:59:20.419Z,36.00
2022-09-14T17:01:52.113Z,36.50
2022-09-14T17:04:22.151Z,36.90
2022-09-14T17:06:51.376Z,37.50
2022-09-14T17:09:24.364Z,37.40
2022-09-14T17:11:52.573Z,38.60
2022-09-14T17:14:24.238Z,39.00
2022-09-14T17:16:51.697Z,39.70
2022-09-14T17:19:19.261Z,40.80
2022-09-14T17:21:47.316Z,41.70
2022-09-14T17:24:15.926Z,42.20
2022-09-14T17:26:43.418Z,43.00
2022-09-14T17:29:11.426Z,43.50
2022-09-14T17:31:41.324Z,44.00
2022-09-14T17:34:15.190Z,44.30
2022-09-14T17:36:42.506Z,45.20
2022-09-14T17:39:12.236Z,45.90
2022-09-14T17:41:40.917Z,46.20
2022-09-14T17:44:11.279Z,46.90
2022-09-14T17:46:45.993Z,47.50
2022-09-14T17:49:18.546Z,47.70
2022-09-14T17:51:45.714Z,48.30
2022-09-14T17:54:13.107Z,48.60
2022-09-14T17:56:40.425Z,48.80
2022-09-14T17:59:11.859Z,49.60
2022-09-14T18:01:39.121Z,50.20
2022-09-14T18:04:09.674Z,50.60
2022-09-14T18:06:40.282Z,51.10
2022-09-14T18:09:11.449Z,51.00
2022-09-14T18:11:38.645Z,52.20
2022-09-14T18:14:06.207Z,52.60
2022-09-14T18:16:34.035Z,53.20
2022-09-14T18:19:01.641Z,53.50
2022-09-14T18:21:28.814Z,54.00
2022-09-14T18:23:56.157Z,54.10
2022-09-14T18:26:24.802Z,54.50
2022-09-14T18:28:55.812Z,55.20
2022-09-14T18:31:23.792Z,54.90
2022-09-14T18:33:57.754Z,54.50
2022-09-14T18:36:28.808Z,54.10
2022-09-14T18:38:57.762Z,53.80
2022-09-14T18:41:25.038Z,54.40
2022-09-14T18:43:53.317Z,54.60
2022-09-14T18:46:24.638Z,54.50
2022-09-14T18:48:57.519Z,54.20
2022-09-14T18:51:25.163Z,53.70
2022-09-14T18:54:01.070Z,54.10
2022-09-14T18:56:29.596Z,54.20
2022-09-14T18:58:56.681Z,52.90
2022-09-14T19:01:23.954Z,53.20
2022-09-14T19:03:51.392Z,52.90
2022-09-14T19:06:19.468Z,52.90
2022-09-14T19:08:46.933Z,52.50
2022-09-14T19:11:17.691Z,52.60
2022-09-14T19:13:46.278Z,52.90
2022-09-14T19:16:16.036Z,53.20
2022-09-14T19:18:44.567Z,53.70
2022-09-14T19:21:14.443Z,54.10
2022-09-14T19:23:43.143Z,54.40
2022-09-14T19:26:12.964Z,55.10
2022-09-14T19:28:41.149Z,55.70
2022-09-14T19:31:19.435Z,56.40
2022-09-14T19:33:46.690Z,56.90
2022-09-14T19:36:16.926Z,57.20
2022-09-14T19:38:44.310Z,57.40
2022-09-14T19:41:12.191Z,57.40
2022-09-14T19:43:39.448Z,57.70
2022-09-14T19:46:11.870Z,57.90
2022-09-14T19:48:39.854Z,58.20
2022-09-14T19:51:10.290Z,58.40
2022-09-14T19:53:38.094Z,58.80
2022-09-14T19:56:11.519Z,58.90
2022-09-14T19:58:47.478Z,59.00
2022-09-14T20:01:18.982Z,59.30
2022-09-14T20:03:47.519Z,59.50
2022-09-14T20:06:23.484Z,59.70
2022-09-14T20:08:54.376Z,59.70
2022-09-14T20:11:23.661Z,59.90
2022-09-14T20:13:54.183Z,60.10
2022-09-14T20:16:28.211Z,60.30
2022-09-14T20:18:57.165Z,60.30
2022-09-14T20:21:26.496Z,60.80
2022-09-14T20:24:17.622Z,61.40
2022-09-14T20:26:49.981Z,61.50
2022-09-14T20:29:18.705Z,61.60
2022-09-14T20:31:46.697Z,61.80
2022-09-14T20:34:16.191Z,61.80
2022-09-14T20:36:43.722Z,61.90
2022-09-14T20:39:11.086Z,61.80
2022-09-14T20:41:38.272Z,62.10
2022-09-14T20:44:05.942Z,62.80
2022-09-14T20:46:36.056Z,63.90
2022-09-14T20:49:04.915Z,64.50
2022-09-14T20:51:32.470Z,64.30
2022-09-14T20:53:59.647Z,63.50
2022-09-14T20:56:28.698Z,63.70
2022-09-14T20:58:58.649Z,65.00
2022-09-14T21:01:32.741Z,65.40
2022-09-14T21:04:09.032Z,64.40
2022-09-14T21:06:39.091Z,63.40
2022-09-14T21:09:07.531Z,62.80
2022-09-14T21:11:35.336Z,62.50
2022-09-14T21:14:02.915Z,62.40
2022-09-14T21:16:36.884Z,63.20
2022-09-14T21:19:11.525Z,63.00
2022-09-14T21:21:39.057Z,63.40
2022-09-14T21:24:09.491Z,64.10
2022-09-14T21:26:41.830Z,64.10
2022-09-14T21:29:13.263Z,64.10
2022-09-14T21:31:40.733Z,63.70
2022-09-14T21:34:10.066Z,64.10
2022-09-14T21:36:40.290Z,63.60
2022-09-14T21:39:13.594Z,63.60
2022-09-14T21:41:42.313Z,63.60
2022-09-14T21:44:09.515Z,63.70
2022-09-14T21:46:36.999Z,63.30
2022-09-14T21:49:04.291Z,63.20
2022-09-14T21:51:34.926Z,63.10
2022-09-14T21:54:05.192Z,63.20
2022-09-14T21:56:34.814Z,63.30
2022-09-14T21:59:06.048Z,63.50
2022-09-14T22:01:33.238Z,63.60
2022-09-14T22:04:02.123Z,63.60
2022-09-14T22:06:31.271Z,63.70
2022-09-14T22:08:59.787Z,63.10
2022-09-14T22:11:33.635Z,63.80
2022-09-14T22:14:07.936Z,63.60
2022-09-14T22:16:36.883Z,63.90
2022-09-14T22:19:08.667Z,64.10
2022-09-14T22:21:37.764Z,64.20
2022-09-14T22:24:11.332Z,64.10
2022-09-14T22:26:39.621Z,64.10
2022-09-14T22:29:08.809Z,63.90
2022-09-14T22:31:38.129Z,63.90
2022-09-14T22:34:05.446Z,64.10
2022-09-14T22:36:32.607Z,64.20
2022-09-14T22:39:00.611Z,64.20
2022-09-14T22:41:28.621Z,65.10
2022-09-14T22:43:56.696Z,63.90
2022-09-14T22:46:24.761Z,63.70
2022-09-14T22:48:52.723Z,63.20
2022-09-14T22:51:23.542Z,64.00
2022-09-14T22:53:51.630Z,64.40
2022-09-14T22:56:22.021Z,64.80
2022-09-14T22:58:50.169Z,65.30
2022-09-14T23:01:21.449Z,65.70
2022-09-14T23:03:49.155Z,66.20
2022-09-14T23:06:16.285Z,66.50
2022-09-14T23:08:43.592Z,66.50
2022-09-14T23:11:12.271Z,66.50
2022-09-14T23:13:41.214Z,67.00
2022-09-14T23:16:13.703Z,67.40
2022-09-14T23:18:41.193Z,67.40
2022-09-14T23:21:09.263Z,67.30
2022-09-14T23:23:38.154Z,67.30
2022-09-14T23:26:08.166Z,67.40
2022-09-14T23:28:35.947Z,66.80
2022-09-14T23:31:04.019Z,68.00
2022-09-14T23:33:31.801Z,67.50
2022-09-14T23:35:58.948Z,67.20
2022-09-14T23:38:26.494Z,67.20
2022-09-14T23:40:53.644Z,67.20
2022-09-14T23:43:21.019Z,67.30
2022-09-14T23:45:48.466Z,67.00
2022-09-14T23:48:15.940Z,66.90
2022-09-14T23:50:43.227Z,66.80
2022-09-14T23:53:10.762Z,66.60
2022-09-14T23:55:37.896Z,66.30
2022-09-14T23:58:05.055Z,65.90
